createdAt,value
2023-03-05T00:03:55.906Z,7.46
2023-03-05T00:08:58.715Z,7.57
2023-03-05T00:13:56.640Z,7.60
2023-03-05T00:18:58.156Z,7.58
2023-03-05T00:23:58.621Z,7.63
2023-03-05T00:29:00.046Z,7.72
2023-03-05T00:34:02.291Z,7.77
2023-03-05T00:39:04.732Z,7.76
2023-03-05T00:44:03.518Z,7.66
2023-03-05T00:49:03.250Z,7.59
2023-03-05T00:54:01.909Z,7.49
2023-03-05T00:58:59.951Z,7.42
2023-03-05T01:03:59.711Z,7.34
2023-03-05T01:08:57.387Z,7.28
2023-03-05T01:13:55.846Z,7.10
2023-03-05T01:18:58.954Z,7.08
2023-03-05T01:23:59.812Z,7.09
2023-03-05T01:29:01.748Z,6.97
2023-03-05T01:34:03.463Z,7.03
2023-03-05T01:39:04.266Z,6.93
2023-03-05T01:44:05.657Z,7.00
2023-03-05T01:49:09.506Z,6.95
2023-03-05T01:54:08.427Z,6.99
2023-03-05T01:59:08.731Z,7.05
2023-03-05T02:04:09.105Z,7.08
2023-03-05T02:09:12.799Z,7.06
2023-03-05T02:14:16.123Z,7.02
2023-03-05T02:19:16.956Z,7.11
2023-03-05T02:24:21.263Z,7.10
2023-03-05T02:29:21.304Z,7.15
2023-03-05T02:34:18.567Z,7.14
2023-03-05T02:39:17.234Z,7.08
2023-03-05T02:44:15.902Z,7.11
2023-03-05T02:49:18.171Z,7.20
2023-03-05T02:54:16.493Z,7.20
2023-03-05T02:59:17.179Z,7.27
2023-03-05T03:04:16.575Z,7.21
2023-03-05T03:09:17.069Z,7.34
2023-03-05T03:14:20.084Z,7.36
2023-03-05T03:19:20.279Z,7.30
2023-03-05T03:24:19.873Z,7.15
2023-03-05T03:29:18.994Z,7.07
2023-03-05T03:34:17.079Z,7.02
2023-03-05T03:39:16.682Z,7.02
2023-03-05T03:44:14.710Z,7.00
2023-03-05T03:49:16.370Z,6.90
2023-03-05T03:54:15.078Z,6.90
2023-03-05T03:59:14.196Z,6.89
2023-03-05T04:04:15.552Z,6.91
2023-03-05T04:09:17.122Z,6.92
2023-03-05T04:14:19.152Z,6.76
2023-03-05T04:19:19.415Z,6.79
2023-03-05T04:24:20.070Z,6.85
2023-03-05T04:29:21.767Z,6.79
2023-03-05T04:34:22.227Z,6.95
2023-03-05T04:39:22.993Z,6.78
2023-03-05T04:44:23.404Z,6.76
2023-03-05T04:49:23.743Z,6.72
2023-03-05T04:54:24.388Z,6.70
2023-03-05T04:59:25.831Z,6.51
2023-03-05T05:04:26.535Z,6.64
2023-03-05T05:09:28.262Z,6.76
2023-03-05T05:14:26.729Z,6.79
2023-03-05T05:19:26.155Z,6.89
2023-03-05T05:24:24.022Z,6.88
2023-03-05T05:29:23.766Z,6.83
2023-03-05T05:34:21.335Z,6.77
2023-03-05T05:39:21.282Z,6.83
2023-03-05T05:44:18.706Z,6.66
2023-03-05T05:49:16.892Z,6.82
2023-03-05T05:54:15.567Z,6.86
2023-03-05T05:59:15.936Z,6.98
2023-03-05T06:04:16.884Z,7.22
2023-03-05T06:09:17.346Z,7.19
2023-03-05T06:14:17.662Z,7.18
2023-03-05T06:19:15.821Z,7.24
2023-03-05T06:24:14.207Z,7.35
2023-03-05T06:29:34.455Z,7.49
2023-03-05T06:34:32.682Z,7.57
2023-03-05T06:39:34.670Z,7.63
2023-03-05T06:44:32.973Z,7.61
2023-03-05T06:49:33.422Z,7.75
2023-03-05T06:54:33.161Z,7.82
2023-03-05T06:59:31.864Z,7.85
2023-03-05T07:04:30.145Z,7.81
2023-03-05T07:09:31.770Z,7.97
2023-03-05T07:14:30.081Z,7.94
2023-03-05T07:19:29.622Z,7.94
2023-03-05T07:24:31.677Z,8.02
2023-03-05T07:29:31.865Z,8.03
2023-03-05T07:34:32.459Z,8.07
2023-03-05T07:39:32.357Z,8.08
2023-03-05T07:44:30.307Z,8.19
2023-03-05T07:49:28.122Z,8.26
2023-03-05T07:54:26.439Z,8.27
2023-03-05T07:59:26.491Z,8.29
2023-03-05T08:04:24.078Z,8.36
2023-03-05T08:09:22.099Z,8.37
2023-03-05T08:14:20.279Z,8.33
2023-03-05T08:19:21.512Z,8.45
2023-03-05T08:24:30.088Z,8.45
2023-03-05T08:29:33.012Z,8.61
2023-03-05T08:34:32.171Z,8.83
2023-03-05T08:39:36.596Z,8.83
2023-03-05T08:44:37.445Z,8.93
2023-03-05T08:49:37.961Z,9.25
2023-03-05T08:54:40.031Z,9.40
2023-03-05T08:59:40.804Z,9.50
2023-03-05T09:04:40.717Z,9.57
2023-03-05T09:09:41.688Z,9.62
2023-03-05T09:14:41.330Z,9.71
2023-03-05T09:19:45.610Z,9.83
2023-03-05T09:24:44.250Z,9.91
2023-03-05T09:29:45.687Z,10.09
2023-03-05T09:34:45.887Z,10.18
2023-03-05T09:39:48.156Z,10.20
2023-03-05T09:44:45.521Z,10.43
2023-03-05T09:49:45.865Z,10.54
2023-03-05T09:54:50.036Z,10.70
2023-03-05T10:00:09.171Z,10.88
2023-03-05T10:05:35.278Z,10.85
2023-03-05T10:10:37.799Z,10.90
2023-03-05T10:15:52.366Z,10.92
2023-03-05T10:21:05.668Z,11.11
2023-03-05T10:26:06.173Z,11.25
2023-03-05T10:31:09.993Z,11.09
2023-03-05T10:36:08.724Z,11.12
2023-03-05T10:41:17.715Z,11.22
2023-03-05T10:46:18.023Z,11.27
2023-03-05T10:51:19.642Z,11.57
2023-03-05T10:56:17.953Z,11.90
2023-03-05T11:01:15.800Z,12.06
2023-03-05T11:06:14.280Z,12.20
2023-03-05T11:11:18.826Z,12.11
2023-03-05T11:16:20.878Z,12.22
2023-03-05T11:21:19.992Z,12.08
2023-03-05T11:26:22.555Z,11.95
2023-03-05T11:31:25.964Z,12.32
2023-03-05T11:36:41.759Z,12.39
2023-03-05T11:41:42.340Z,12.44
2023-03-05T11:46:42.196Z,12.15
2023-03-05T11:51:59.050Z,11.94
2023-03-05T11:56:58.278Z,12.15
2023-03-05T12:01:56.238Z,12.08
2023-03-05T12:06:57.510Z,12.21
2023-03-05T12:12:01.129Z,12.44
2023-03-05T12:17:07.955Z,12.70
2023-03-05T12:22:14.871Z,12.94
2023-03-05T12:27:15.411Z,13.16
2023-03-05T12:32:23.493Z,13.13
2023-03-05T12:37:21.876Z,13.26
2023-03-05T12:42:28.404Z,13.27
2023-03-05T12:47:27.101Z,13.53
2023-03-05T12:52:29.272Z,13.67
2023-03-05T12:57:30.178Z,13.44
2023-03-05T13:02:32.902Z,13.53
2023-03-05T13:07:30.456Z,13.52
2023-03-05T13:12:31.166Z,13.47
2023-03-05T13:17:44.567Z,13.69
2023-03-05T13:22:42.662Z,13.84
2023-03-05T13:27:41.696Z,13.78
2023-03-05T13:32:42.388Z,13.87
2023-03-05T13:37:42.751Z,13.74
2023-03-05T13:42:40.872Z,13.66
2023-03-05T13:47:38.878Z,13.56
2023-03-05T13:52:38.249Z,13.81
2023-03-05T13:57:40.773Z,13.60
2023-03-05T14:02:44.418Z,13.22
2023-03-05T14:07:42.057Z,13.25
2023-03-05T14:12:42.527Z,13.43
2023-03-05T14:17:41.863Z,13.67
2023-03-05T14:22:43.543Z,13.92
2023-03-05T14:27:43.927Z,14.47
2023-03-05T14:32:44.395Z,14.83
2023-03-05T14:37:45.945Z,15.94
2023-03-05T14:42:45.002Z,16.23
2023-03-05T14:47:43.866Z,15.51
2023-03-05T14:52:42.445Z,15.31
2023-03-05T14:57:40.895Z,14.64
2023-03-05T15:02:39.385Z,14.31
2023-03-05T15:07:40.362Z,14.07
2023-03-05T15:12:39.441Z,13.86
2023-03-05T15:17:37.392Z,13.79
2023-03-05T15:22:35.693Z,13.51
2023-03-05T15:27:33.419Z,13.20
2023-03-05T15:32:31.566Z,12.96
2023-03-05T15:37:29.171Z,12.65
2023-03-05T15:42:29.548Z,12.41
2023-03-05T15:47:33.379Z,12.22
2023-03-05T15:52:31.194Z,12.05
2023-03-05T15:57:31.400Z,11.85
2023-03-05T16:02:31.849Z,11.65
2023-03-05T16:07:30.064Z,11.51
2023-03-05T16:12:29.461Z,11.36
2023-03-05T16:17:30.005Z,11.19
2023-03-05T16:22:28.214Z,11.07
2023-03-05T16:27:29.018Z,10.98
2023-03-05T16:32:28.090Z,10.89
2023-03-05T16:37:29.790Z,10.89
2023-03-05T16:42:35.992Z,10.75
2023-03-05T16:47:46.193Z,10.56
2023-03-05T16:52:47.657Z,10.46
2023-03-05T16:57:47.969Z,10.38
2023-03-05T17:02:49.156Z,10.29
2023-03-05T17:07:46.575Z,10.21
2023-03-05T17:12:47.555Z,10.06
2023-03-05T17:17:45.324Z,10.03
2023-03-05T17:22:45.194Z,9.96
2023-03-05T17:27:43.289Z,9.87
2023-03-05T17:32:44.573Z,9.76
2023-03-05T17:37:44.764Z,9.69
2023-03-05T17:42:42.862Z,9.75
2023-03-05T17:47:40.796Z,9.92
2023-03-05T17:52:40.544Z,9.77
2023-03-05T17:57:41.589Z,9.36
2023-03-05T18:02:38.885Z,9.20
2023-03-05T18:07:38.139Z,9.09
2023-03-05T18:12:36.751Z,8.92
2023-03-05T18:17:38.068Z,8.88
2023-03-05T18:22:36.108Z,8.87
2023-03-05T18:27:36.807Z,8.63
2023-03-05T18:32:35.343Z,8.46
2023-03-05T18:37:33.795Z,8.22
2023-03-05T18:42:35.014Z,8.05
2023-03-05T18:47:33.997Z,7.90
2023-03-05T18:52:32.589Z,7.59
2023-03-05T18:57:33.701Z,7.57
2023-03-05T19:02:34.636Z,7.45
2023-03-05T19:07:37.983Z,7.28
2023-03-05T19:12:38.984Z,7.23
2023-03-05T19:17:46.028Z,7.15
2023-03-05T19:22:44.870Z,7.11
2023-03-05T19:27:44.672Z,7.00
2023-03-05T19:32:52.702Z,7.02
2023-03-05T19:37:55.158Z,7.09
2023-03-05T19:42:54.777Z,7.00
2023-03-05T19:47:54.478Z,7.00
2023-03-05T19:52:52.110Z,6.90
2023-03-05T19:57:52.210Z,6.79
2023-03-05T20:02:55.858Z,6.76
2023-03-05T20:08:04.773Z,6.72
2023-03-05T20:13:03.379Z,6.61
2023-03-05T20:18:02.534Z,6.54
2023-03-05T20:23:05.024Z,6.50
2023-03-05T20:28:03.734Z,6.27
2023-03-05T20:33:01.567Z,6.31
2023-03-05T20:38:33.626Z,6.45
2023-03-05T20:43:32.740Z,6.26
2023-03-05T20:48:31.135Z,6.11
2023-03-05T20:53:31.392Z,6.11
2023-03-05T20:58:33.114Z,6.21
2023-03-05T21:03:33.811Z,6.18
2023-03-05T21:08:31.829Z,6.06
2023-03-05T21:13:33.537Z,5.95
2023-03-05T21:18:34.339Z,5.91
2023-03-05T21:23:32.174Z,5.85
2023-03-05T21:28:33.219Z,5.89
2023-03-05T21:33:30.947Z,5.82
2023-03-05T21:38:43.778Z,5.90
2023-03-05T21:43:44.758Z,5.94
2023-03-05T21:48:45.249Z,6.06
2023-03-05T21:53:50.684Z,6.12
2023-03-05T21:58:51.301Z,6.22
2023-03-05T22:03:52.234Z,6.24
2023-03-05T22:08:49.928Z,6.31
2023-03-05T22:13:47.798Z,6.34
2023-03-05T22:18:48.482Z,6.39
2023-03-05T22:23:49.412Z,6.39
2023-03-05T22:28:47.772Z,6.41
2023-03-05T22:33:48.419Z,6.40
2023-03-05T22:38:46.982Z,6.37
2023-03-05T22:43:48.141Z,6.26
2023-03-05T22:48:47.882Z,6.22
2023-03-05T22:53:46.798Z,6.35
2023-03-05T22:58:44.946Z,6.29
2023-03-05T23:04:15.496Z,6.32
2023-03-05T23:09:29.778Z,6.35
2023-03-05T23:14:29.957Z,6.32
2023-03-05T23:19:27.949Z,6.12
2023-03-05T23:24:25.585Z,6.05
2023-03-05T23:30:05.551Z,5.99
2023-03-05T23:35:11.742Z,5.87
2023-03-05T23:40:14.740Z,5.59
2023-03-05T23:45:17.042Z,5.45
2023-03-05T23:50:16.530Z,5.47
2023-03-05T23:55:21.597Z,5.42
